Time;durP1;ratioP1;P1;durP2;ratioP2;P2;SDS_P1;SDS_P2;PMS_P1;PMS_P2;Temp;Humidity;BMP_temperature;BMP_pressure;BME280_temperature;BME280_humidity;BME280_pressure;Samples;Min_cycle;Max_cycle;Signal;HPM_P1;HPM_P2
2022/01/14 00:01:45;;;;;;;56.80;21.80;;;0.90;99.90;;;;;;5097285;28;20031;-82
2022/01/14 00:04:12;;;;;;;57.27;21.60;;;1.00;99.90;;;;;;5097353;28;20027;-82
2022/01/14 00:06:38;;;;;;;57.60;20.97;;;1.00;99.90;;;;;;5096807;28;20488;-82
2022/01/14 00:09:10;;;;;;;58.00;20.90;;;1.00;99.90;;;;;;5097391;28;20126;-83
2022/01/14 00:11:41;;;;;;;;;;;0.90;99.90;;;;;;5097183;28;20024;-82
2022/01/14 00:16:44;;;;;;;55.20;21.00;;;0.90;99.90;;;;;;5114514;28;20023;-83
2022/01/14 00:19:10;;;;;;;51.73;19.80;;;1.00;99.90;;;;;;5097064;28;20084;-83
2022/01/14 00:21:37;;;;;;;57.60;20.30;;;0.90;99.90;;;;;;5096449;28;20106;-82
2022/01/14 00:24:11;;;;;;;47.63;19.20;;;0.90;99.90;;;;;;5096220;28;20027;-83
2022/01/14 00:35:06;;;;;;;46.83;19.00;;;0.80;99.90;;;;;;5076124;28;20036;-83
2022/01/14 00:37:32;;;;;;;49.43;18.60;;;0.80;99.90;;;;;;5096630;28;20084;-83
2022/01/14 00:39:58;;;;;;;42.87;17.53;;;0.80;99.90;;;;;;5096292;28;20426;-83
2022/01/14 00:42:23;;;;;;;41.33;16.20;;;0.80;99.90;;;;;;5114837;28;20020;-83
2022/01/14 00:44:49;;;;;;;43.37;17.30;;;0.90;99.90;;;;;;5096279;28;20039;-83
2022/01/14 00:47:15;;;;;;;37.57;16.70;;;0.90;99.90;;;;;;5114810;28;20025;-83
2022/01/14 00:49:40;;;;;;;35.63;15.20;;;0.90;99.90;;;;;;5096028;28;20024;-82
2022/01/14 00:52:06;;;;;;;42.00;16.97;;;0.90;99.90;;;;;;5096794;28;20024;-83
2022/01/14 00:54:32;;;;;;;35.20;16.53;;;0.90;99.90;;;;;;5096667;28;20464;-83
2022/01/14 00:57:25;;;;;;;39.17;17.30;;;0.80;99.90;;;;;;5113926;28;20031;-83
2022/01/14 00:59:49;;;;;;;35.70;16.63;;;0.80;99.90;;;;;;5113252;28;20024;-83
2022/01/14 01:02:14;;;;;;;39.37;15.53;;;0.80;99.90;;;;;;5114293;28;20020;-83
2022/01/14 01:04:40;;;;;;;36.30;15.47;;;0.80;99.90;;;;;;5095668;28;20038;-82
2022/01/14 01:07:08;;;;;;;42.90;17.43;;;0.80;99.90;;;;;;5114498;28;20464;-83
2022/01/14 01:09:37;;;;;;;38.37;15.97;;;0.70;99.90;;;;;;5096511;28;20114;-83
2022/01/14 01:12:13;;;;;;;40.57;17.83;;;0.70;99.90;;;;;;5095806;28;20023;-83
2022/01/14 01:14:51;;;;;;;37.77;16.10;;;0.70;99.90;;;;;;5095736;28;20024;-82
2022/01/14 01:17:17;;;;;;;32.87;14.97;;;0.80;99.90;;;;;;5096251;28;20028;-83
2022/01/14 01:19:45;;;;;;;36.97;15.30;;;0.70;99.90;;;;;;5095884;28;20110;-83
2022/01/14 01:22:10;;;;;;;38.30;16.00;;;0.80;99.90;;;;;;5096129;28;20058;-83
2022/01/14 01:24:36;;;;;;;40.13;16.63;;;0.80;99.90;;;;;;5113726;28;20094;-83
2022/01/14 01:27:06;;;;;;;36.60;15.33;;;0.80;99.90;;;;;;5113763;28;20031;-83
2022/01/14 01:29:48;;;;;;;41.03;17.13;;;0.80;99.90;;;;;;5096344;28;20169;-83
2022/01/14 01:32:14;;;;;;;38.65;16.00;;;0.80;99.90;;;;;;5114145;28;20061;-83
2022/01/14 01:34:40;;;;;;;37.57;16.20;;;0.60;99.90;;;;;;5096834;28;20112;-82
2022/01/14 01:37:05;;;;;;;36.33;16.60;;;0.70;99.90;;;;;;5118233;28;20026;-83
2022/01/14 01:39:36;;;;;;;37.37;15.47;;;0.60;99.90;;;;;;5100057;28;20024;-83
2022/01/14 01:42:08;;;;;;;37.90;16.03;;;0.60;99.90;;;;;;5099611;28;20108;-82
2022/01/14 01:44:36;;;;;;;40.67;16.40;;;0.60;99.90;;;;;;5099854;28;20028;-83
2022/01/14 01:47:02;;;;;;;37.37;16.47;;;0.60;99.90;;;;;;5099385;28;20031;-82
2022/01/14 01:49:35;;;;;;;36.20;16.10;;;0.60;99.90;;;;;;5099688;28;20055;-83
2022/01/14 01:52:00;;;;;;;41.17;16.97;;;0.60;99.90;;;;;;5117584;28;20297;-82
2022/01/14 01:54:28;;;;;;;35.23;15.40;;;0.60;99.90;;;;;;5099912;28;20036;-82
2022/01/14 01:56:54;;;;;;;40.50;17.03;;;0.50;99.90;;;;;;5117097;28;20032;-83
2022/01/14 01:59:22;;;;;;;40.67;17.13;;;0.60;99.90;;;;;;5099976;28;20100;-83
2022/01/14 02:01:49;;;;;;;43.90;17.33;;;0.60;99.90;;;;;;5099410;28;20080;-82
2022/01/14 02:04:14;;;;;;;37.63;16.60;;;0.60;99.90;;;;;;5117740;28;20084;-83
2022/01/14 02:06:41;;;;;;;50.07;17.07;;;0.50;99.90;;;;;;5099851;28;20032;-82
2022/01/14 02:09:08;;;;;;;50.73;17.27;;;0.50;99.90;;;;;;5099416;28;20028;-83
2022/01/14 02:11:34;;;;;;;41.07;16.93;;;0.50;99.90;;;;;;5117466;28;20031;-83
2022/01/14 02:14:05;;;;;;;42.10;17.13;;;0.50;99.90;;;;;;5099087;28;20031;-82
2022/01/14 02:17:00;;;;;;;41.90;17.47;;;0.50;99.90;;;;;;5117268;28;20019;-83
2022/01/14 02:19:29;;;;;;;45.03;16.60;;;0.50;99.90;;;;;;5116587;28;20071;-82
2022/01/14 02:22:11;;;;;;;43.87;17.70;;;0.50;99.90;;;;;;5098903;28;20024;-82
2022/01/14 02:27:08;;;;;;;40.60;15.67;;;0.50;99.90;;;;;;5116852;28;20031;-82
2022/01/14 02:29:34;;;;;;;45.27;16.43;;;0.50;99.90;;;;;;5099467;28;20027;-83
2022/01/14 02:32:01;;;;;;;46.73;16.53;;;0.60;99.90;;;;;;5098659;28;20023;-83
2022/01/14 02:34:27;;;;;;;41.00;16.70;;;0.60;99.90;;;;;;5099095;28;20028;-83
2022/01/14 02:36:53;;;;;;;45.97;15.97;;;0.50;99.90;;;;;;5098716;28;20465;-83
2022/01/14 02:39:20;;;;;;;45.70;17.10;;;0.50;99.90;;;;;;5116881;28;20103;-83
2022/01/14 02:41:48;;;;;;;38.37;16.23;;;0.40;99.90;;;;;;5098368;28;20020;-82
2022/01/14 02:44:23;;;;;;;36.90;15.37;;;0.40;99.90;;;;;;5098696;28;20024;-83
2022/01/14 02:46:56;;;;;;;37.27;15.03;;;0.40;99.90;;;;;;5097235;28;20023;-82
2022/01/14 02:49:31;;;;;;;41.53;16.87;;;0.30;99.90;;;;;;5099168;28;20023;-83
2022/01/14 02:51:58;;;;;;;41.63;16.93;;;0.30;99.90;;;;;;5116252;28;20068;-83
2022/01/14 02:54:40;;;;;;;40.43;16.90;;;0.30;99.90;;;;;;5116971;28;20031;-83
2022/01/14 02:57:08;;;;;;;42.75;16.35;;;0.30;99.90;;;;;;5116225;28;20471;-83
2022/01/14 02:59:36;;;;;;;43.90;16.20;;;0.30;99.90;;;;;;5098749;28;20080;-83
2022/01/14 03:02:03;;;;;;;41.03;16.70;;;0.30;99.90;;;;;;5097964;28;20035;-83
2022/01/14 03:04:32;;;;;;;40.90;17.23;;;0.30;99.90;;;;;;5098943;28;20035;-83
2022/01/14 03:06:58;;;;;;;37.93;14.70;;;0.20;99.90;;;;;;5097829;28;20035;-83
2022/01/14 03:09:23;;;;;;;36.03;15.33;;;0.30;99.90;;;;;;5116473;28;20028;-83
2022/01/14 03:11:58;;;;;;;39.17;15.00;;;0.30;99.90;;;;;;5097767;28;20077;-82
2022/01/14 03:14:25;;;;;;;40.17;15.23;;;0.40;99.90;;;;;;5098290;28;20024;-83
2022/01/14 03:16:53;;;;;;;38.77;15.87;;;0.20;99.90;;;;;;5098046;28;20059;-83
2022/01/14 03:19:23;;;;;;;35.33;15.57;;;0.30;99.90;;;;;;5098276;28;20028;-83
2022/01/14 03:21:52;;;;;;;36.23;16.17;;;0.40;99.90;;;;;;5097725;28;20377;-82
2022/01/14 03:25:35;;;;;;;41.00;16.07;;;0.40;99.90;;;;;;5097942;28;20085;-84
2022/01/14 03:27:04;;;;;;;36.40;15.53;;;0.30;99.90;;;;;;5114732;28;20123;-82
2022/01/14 03:29:30;;;;;;;40.67;16.90;;;0.30;99.90;;;;;;5097903;28;20063;-83
2022/01/14 03:31:55;;;;;;;39.70;15.90;;;0.30;99.90;;;;;;5097519;28;20067;-83
2022/01/14 03:34:21;;;;;;;43.93;16.67;;;0.30;99.90;;;;;;5097943;28;20475;-83
2022/01/14 03:36:47;;;;;;;46.93;17.50;;;0.40;99.90;;;;;;5097688;28;20030;-82
2022/01/14 03:39:12;;;;;;;40.97;16.80;;;0.40;99.90;;;;;;5115966;28;20084;-82
2022/01/14 03:41:38;;;;;;;44.83;17.50;;;0.40;99.90;;;;;;5116073;28;20024;-83
2022/01/14 03:44:04;;;;;;;38.00;16.87;;;0.30;99.90;;;;;;5097364;28;20040;-83
2022/01/14 03:46:30;;;;;;;40.27;15.70;;;0.30;99.90;;;;;;5097557;28;20028;-83
2022/01/14 03:48:56;;;;;;;37.73;17.70;;;0.40;99.90;;;;;;5097186;28;20031;-83
2022/01/14 03:51:27;;;;;;;37.03;13.73;;;0.40;99.90;;;;;;5115562;28;20027;-83
2022/01/14 03:53:52;;;;;;;38.97;16.50;;;0.40;99.90;;;;;;5096705;28;20542;-82
2022/01/14 03:56:18;;;;;;;36.90;15.83;;;0.40;99.90;;;;;;5097343;28;20032;-83
2022/01/14 03:58:44;;;;;;;39.90;16.97;;;0.50;99.90;;;;;;5097031;28;20024;-82
2022/01/14 04:01:12;;;;;;;36.27;16.27;;;0.50;99.90;;;;;;5096627;28;20053;-83
2022/01/14 04:03:38;;;;;;;35.93;16.30;;;0.50;99.90;;;;;;5097377;28;20418;-83
2022/01/14 04:06:04;;;;;;;61.27;17.30;;;0.60;99.90;;;;;;5096927;28;20024;-82
2022/01/14 04:08:30;;;;;;;36.43;15.67;;;0.50;99.90;;;;;;5097693;28;20054;-83
2022/01/14 04:10:57;;;;;;;38.60;16.10;;;0.40;99.90;;;;;;5096664;28;20053;-82
2022/01/14 04:13:36;;;;;;;36.43;15.80;;;0.50;99.90;;;;;;5097015;28;20027;-82
2022/01/14 04:16:02;;;;;;;36.90;15.73;;;0.50;99.90;;;;;;5096702;28;20024;-82
2022/01/14 04:18:28;;;;;;;40.20;16.53;;;0.50;99.90;;;;;;5114998;28;20024;-83
2022/01/14 04:20:54;;;;;;;39.97;16.50;;;0.60;99.90;;;;;;5114628;28;20029;-83
2022/01/14 04:23:24;;;;;;;47.00;17.17;;;0.60;99.90;;;;;;5096849;28;20521;-83
2022/01/14 04:25:52;;;;;;;44.07;16.93;;;0.60;99.90;;;;;;5096383;28;20064;-82
2022/01/14 04:28:18;;;;;;;37.53;16.33;;;0.60;99.90;;;;;;5096888;28;20027;-83
2022/01/14 04:30:48;;;;;;;44.70;16.97;;;0.70;99.90;;;;;;5096984;28;20024;-83
2022/01/14 04:33:14;;;;;;;39.67;17.10;;;0.70;99.90;;;;;;5114319;28;20103;-83
2022/01/14 04:35:40;;;;;;;41.77;16.70;;;0.50;99.90;;;;;;5096826;28;20035;-83
2022/01/14 04:38:06;;;;;;;40.07;16.70;;;0.50;99.90;;;;;;5114380;28;20368;-83
2022/01/14 04:40:33;;;;;;;42.00;18.37;;;0.50;99.90;;;;;;5114819;28;20050;-83
2022/01/14 04:43:00;;;;;;;42.27;17.20;;;0.50;99.90;;;;;;5096249;28;20020;-83
2022/01/14 04:45:41;;;;;;;39.43;16.73;;;0.60;99.90;;;;;;5096899;28;20118;-83
2022/01/14 04:48:10;;;;;;;45.75;17.20;;;0.60;99.90;;;;;;5096533;28;20082;-83
2022/01/14 04:50:36;;;;;;;43.17;17.27;;;0.60;99.90;;;;;;5113951;28;20042;-83
2022/01/14 04:53:02;;;;;;;44.27;16.40;;;0.60;99.90;;;;;;5114209;28;20380;-83
2022/01/14 04:55:28;;;;;;;46.80;16.53;;;0.60;99.90;;;;;;5096665;28;20031;-83
2022/01/14 04:57:55;;;;;;;39.93;17.50;;;0.60;99.90;;;;;;5096243;28;20031;-82
2022/01/14 05:00:23;;;;;;;39.97;17.03;;;0.60;99.90;;;;;;5096437;28;20020;-83
2022/01/14 05:02:52;;;;;;;48.67;18.10;;;0.60;99.90;;;;;;5095897;28;20023;-83
2022/01/14 05:05:20;;;;;;;41.57;16.80;;;0.60;99.90;;;;;;5114149;28;20118;-83
2022/01/14 05:07:48;;;;;;;42.83;17.70;;;0.60;99.90;;;;;;5096338;28;20034;-83
2022/01/14 05:12:43;;;;;;;48.33;17.23;;;0.60;99.90;;;;;;5118237;28;20023;-82
2022/01/14 05:15:10;;;;;;;52.20;18.00;;;0.60;99.90;;;;;;5117941;28;20084;-83
2022/01/14 05:17:35;;;;;;;47.43;18.53;;;0.60;99.90;;;;;;5100778;28;20425;-83
2022/01/14 05:20:03;;;;;;;41.47;17.73;;;0.70;99.90;;;;;;5100126;28;20027;-83
2022/01/14 05:22:29;;;;;;;51.10;18.13;;;0.70;99.90;;;;;;5100587;28;20028;-83
2022/01/14 05:24:54;;;;;;;46.73;17.67;;;0.70;99.90;;;;;;5099455;28;20523;-83
2022/01/14 05:27:20;;;;;;;40.20;16.90;;;0.80;99.90;;;;;;5118288;28;20031;-83
2022/01/14 05:29:46;;;;;;;50.23;17.57;;;0.70;99.90;;;;;;5100318;28;20073;-83
2022/01/14 05:32:14;;;;;;;46.80;17.57;;;0.80;99.90;;;;;;5099791;28;20024;-83
2022/01/14 05:34:42;;;;;;;46.27;16.90;;;0.80;99.90;;;;;;5100079;28;20036;-83
2022/01/14 05:37:09;;;;;;;46.87;18.70;;;0.80;99.90;;;;;;5117508;28;20031;-83
2022/01/14 05:39:35;;;;;;;49.73;17.43;;;0.80;99.90;;;;;;5100060;28;20430;-83
2022/01/14 05:42:01;;;;;;;42.93;18.00;;;0.80;99.90;;;;;;5099455;28;20480;-82
2022/01/14 05:44:29;;;;;;;48.90;18.77;;;0.80;99.90;;;;;;5100104;28;20054;-83
2022/01/14 05:46:56;;;;;;;46.73;18.23;;;0.80;99.90;;;;;;5099936;28;20030;-82
2022/01/14 05:49:22;;;;;;;58.93;19.20;;;0.80;99.90;;;;;;5099712;28;20072;-83
2022/01/14 05:51:48;;;;;;;52.07;19.47;;;0.70;99.90;;;;;;5099448;28;20038;-83
2022/01/14 05:54:16;;;;;;;52.70;19.00;;;0.70;99.90;;;;;;5098921;28;20168;-83
2022/01/14 05:56:41;;;;;;;54.07;18.90;;;0.70;99.90;;;;;;5099687;28;20065;-83
2022/01/14 05:59:08;;;;;;;50.50;20.00;;;0.70;99.90;;;;;;5099174;28;20035;-82
2022/01/14 06:01:34;;;;;;;55.63;19.60;;;0.70;99.90;;;;;;5099656;28;20024;-83
2022/01/14 06:04:01;;;;;;;49.50;18.57;;;0.80;99.90;;;;;;5117136;28;20051;-82
2022/01/14 06:06:27;;;;;;;56.47;18.80;;;0.70;99.90;;;;;;5117651;28;20035;-83
2022/01/14 06:08:53;;;;;;;64.60;21.17;;;0.70;99.90;;;;;;5117679;28;20031;-83
2022/01/14 06:11:19;;;;;;;52.07;19.30;;;0.60;99.90;;;;;;5098979;28;20106;-82
2022/01/14 06:13:46;;;;;;;52.63;18.73;;;0.60;99.90;;;;;;5099464;28;20023;-82
2022/01/14 06:16:11;;;;;;;52.00;18.17;;;0.60;99.90;;;;;;5098847;28;20028;-82
2022/01/14 06:18:37;;;;;;;58.70;20.97;;;0.60;99.90;;;;;;5117279;28;20031;-83
2022/01/14 06:21:04;;;;;;;58.13;19.57;;;0.60;99.90;;;;;;5116672;28;20031;-82
2022/01/14 06:23:29;;;;;;;67.83;20.20;;;0.60;99.90;;;;;;5099259;28;20058;-83
2022/01/14 06:25:55;;;;;;;59.00;19.20;;;0.60;99.90;;;;;;5098902;28;20083;-83
2022/01/14 06:28:21;;;;;;;54.13;19.40;;;0.60;99.90;;;;;;5116632;28;20106;-83
2022/01/14 06:30:46;;;;;;;57.97;19.53;;;0.70;99.90;;;;;;5099153;28;20162;-83
2022/01/14 06:33:12;;;;;;;45.73;17.47;;;0.70;99.90;;;;;;5098809;28;20031;-83
2022/01/14 06:35:38;;;;;;;47.63;18.13;;;0.70;99.90;;;;;;5099240;28;20123;-83
2022/01/14 06:38:03;;;;;;;54.07;18.63;;;0.70;99.90;;;;;;5098300;28;20024;-83
2022/01/14 06:40:30;;;;;;;60.70;20.07;;;0.70;99.90;;;;;;5098877;28;20027;-83
2022/01/14 06:42:56;;;;;;;64.30;20.73;;;0.70;99.90;;;;;;5098787;28;20024;-83
2022/01/14 06:45:23;;;;;;;54.73;18.90;;;0.70;99.90;;;;;;5098256;28;20062;-83
2022/01/14 06:47:50;;;;;;;53.27;19.80;;;0.70;99.90;;;;;;5121054;28;20111;-83
2022/01/14 06:50:17;;;;;;;53.47;18.53;;;0.70;99.90;;;;;;5098137;28;20031;-83
2022/01/14 06:52:43;;;;;;;56.33;19.33;;;0.80;99.90;;;;;;5098465;28;20050;-83
2022/01/14 06:55:09;;;;;;;59.60;20.27;;;0.90;99.90;;;;;;5097940;28;20027;-83
2022/01/14 06:57:35;;;;;;;55.57;19.47;;;0.90;99.90;;;;;;5100023;28;20465;-83
2022/01/14 07:00:04;;;;;;;55.83;20.93;;;0.90;99.90;;;;;;5097901;28;20092;-83
2022/01/14 07:02:30;;;;;;;64.37;19.80;;;0.90;99.90;;;;;;5097882;28;20396;-83
2022/01/14 07:04:55;;;;;;;53.53;18.60;;;0.90;99.90;;;;;;5116310;28;20076;-83
2022/01/14 07:07:21;;;;;;;58.87;20.47;;;0.90;99.90;;;;;;5097634;28;20023;-83
2022/01/14 07:09:56;;;;;;;55.23;20.10;;;0.90;99.90;;;;;;5098177;28;20020;-83
2022/01/14 07:12:43;;;;;;;58.07;20.83;;;0.90;99.90;;;;;;5097496;28;20061;-83
2022/01/14 07:15:11;;;;;;;53.43;19.50;;;0.90;99.90;;;;;;5097614;28;20034;-83
2022/01/14 07:17:38;;;;;;;55.67;19.70;;;0.90;99.90;;;;;;5098388;28;20167;-83
2022/01/14 07:20:08;;;;;;;53.83;19.90;;;0.90;99.90;;;;;;5097819;28;20024;-83
2022/01/14 07:22:34;;;;;;;68.30;20.70;;;0.90;99.90;;;;;;5098178;28;20027;-83
2022/01/14 07:25:00;;;;;;;56.60;19.60;;;0.90;99.90;;;;;;5097330;28;20052;-82
2022/01/14 07:27:27;;;;;;;58.23;20.27;;;0.90;99.90;;;;;;5097956;28;20472;-83
2022/01/14 07:29:54;;;;;;;53.83;18.97;;;0.90;99.90;;;;;;5115732;28;20083;-83
2022/01/14 07:32:19;;;;;;;45.67;18.47;;;1.00;99.90;;;;;;5114814;28;20027;-82
2022/01/14 07:34:45;;;;;;;52.63;19.53;;;1.00;99.90;;;;;;5097749;28;20028;-83
2022/01/14 07:37:11;;;;;;;62.47;20.50;;;1.00;99.90;;;;;;5097150;28;20019;-83
2022/01/14 07:39:37;;;;;;;58.70;19.80;;;1.00;99.90;;;;;;5115636;28;20047;-82
2022/01/14 07:42:04;;;;;;;60.93;20.57;;;1.00;99.90;;;;;;5097103;28;20457;-82
2022/01/14 07:44:29;;;;;;;58.50;20.00;;;1.00;99.90;;;;;;5115620;28;20028;-82
2022/01/14 07:46:55;;;;;;;52.43;19.83;;;1.00;99.90;;;;;;5097365;28;20169;-82
2022/01/14 07:49:21;;;;;;;58.13;20.10;;;1.00;99.90;;;;;;5097163;28;20239;-82
2022/01/14 07:51:46;;;;;;;52.17;19.57;;;1.00;99.90;;;;;;5097488;28;20019;-82
2022/01/14 07:54:12;;;;;;;61.30;19.77;;;1.00;99.90;;;;;;5096770;28;20039;-82
2022/01/14 07:56:45;;;;;;;54.33;19.47;;;1.00;99.90;;;;;;5097306;28;20031;-82
2022/01/14 07:59:13;;;;;;;55.63;20.00;;;1.00;99.90;;;;;;5096671;28;20031;-82
2022/01/14 08:01:40;;;;;;;47.20;18.90;;;0.90;99.90;;;;;;5097092;28;20020;-82
2022/01/14 08:04:06;;;;;;;50.60;18.50;;;0.90;99.90;;;;;;5114676;28;20047;-83
2022/01/14 08:06:37;;;;;;;45.90;17.23;;;0.90;99.90;;;;;;5115121;28;20525;-83
2022/01/14 08:09:03;;;;;;;49.87;18.90;;;0.90;99.90;;;;;;5115118;28;20026;-82
2022/01/14 08:11:29;;;;;;;58.77;20.30;;;0.90;99.90;;;;;;5097084;28;20116;-83
2022/01/14 08:13:55;;;;;;;50.37;18.83;;;0.90;99.90;;;;;;5115012;28;20051;-83
2022/01/14 08:16:21;;;;;;;57.27;19.87;;;0.80;99.90;;;;;;5114417;28;20027;-83
2022/01/14 08:18:46;;;;;;;57.03;20.33;;;0.90;99.90;;;;;;5096849;28;20121;-84
2022/01/14 08:21:12;;;;;;;66.23;21.10;;;0.90;99.90;;;;;;5114306;28;20032;-84
2022/01/14 08:23:39;;;;;;;62.10;20.30;;;0.90;99.90;;;;;;5096845;28;20072;-83
2022/01/14 08:26:05;;;;;;;63.00;21.30;;;0.90;99.90;;;;;;5114378;28;20138;-82
2022/01/14 08:28:31;;;;;;;61.20;22.03;;;0.90;99.90;;;;;;5096733;28;20027;-83
2022/01/14 08:30:56;;;;;;;62.63;21.90;;;0.90;99.90;;;;;;5096792;28;20032;-83
2022/01/14 08:33:23;;;;;;;62.43;21.40;;;0.90;99.90;;;;;;5096379;28;20030;-83
2022/01/14 08:35:49;;;;;;;63.00;21.20;;;1.00;99.90;;;;;;5114711;28;20030;-83
2022/01/14 08:38:15;;;;;;;52.43;20.00;;;1.00;99.90;;;;;;5114244;28;20024;-83
2022/01/14 08:40:41;;;;;;;52.77;20.53;;;1.00;99.90;;;;;;5096578;28;20023;-84
2022/01/14 08:43:07;;;;;;;53.23;20.27;;;1.00;99.90;;;;;;5096194;28;20107;-83
2022/01/14 08:45:33;;;;;;;58.23;20.57;;;1.00;99.90;;;;;;5113438;28;20031;-83
2022/01/14 08:47:59;;;;;;;56.77;21.27;;;1.00;99.90;;;;;;5096566;28;20076;-84
2022/01/14 08:50:35;;;;;;;58.33;21.03;;;1.00;99.90;;;;;;5096052;28;20031;-84
2022/01/14 08:53:03;;;;;;;56.37;19.60;;;1.00;99.90;;;;;;5114450;28;20102;-83
2022/01/14 08:55:29;;;;;;;60.03;20.07;;;1.00;99.90;;;;;;5096250;28;20028;-83
2022/01/14 08:57:55;;;;;;;61.13;21.47;;;1.00;99.90;;;;;;5096544;28;20032;-83
2022/01/14 09:00:22;;;;;;;66.83;22.50;;;1.00;99.90;;;;;;5113989;28;20032;-82
2022/01/14 09:02:48;;;;;;;66.33;22.27;;;1.00;99.90;;;;;;5096123;28;20024;-83
2022/01/14 09:05:14;;;;;;;60.27;20.77;;;1.00;99.90;;;;;;5095675;28;20042;-82
2022/01/14 09:07:40;;;;;;;58.10;20.87;;;1.10;99.90;;;;;;5096247;28;20028;-83
2022/01/14 09:10:07;;;;;;;57.97;20.67;;;1.10;99.90;;;;;;5095946;28;20161;-84
2022/01/14 09:12:34;;;;;;;65.40;22.40;;;1.20;99.90;;;;;;5096146;28;20032;-83
2022/01/14 09:15:00;;;;;;;66.70;21.93;;;1.20;99.90;;;;;;5096182;28;20128;-83
2022/01/14 09:17:29;;;;;;;58.37;21.17;;;1.20;99.90;;;;;;5113751;28;20027;-83
2022/01/14 09:19:55;;;;;;;62.13;21.60;;;1.20;99.90;;;;;;5115005;28;20525;-83
2022/01/14 09:22:22;;;;;;;59.77;20.63;;;1.30;99.90;;;;;;5095904;28;20057;-83
2022/01/14 09:24:48;;;;;;;66.70;20.90;;;1.30;99.90;;;;;;5095964;28;20504;-82
2022/01/14 09:27:15;;;;;;;57.97;20.23;;;1.20;99.90;;;;;;5095719;28;20091;-83
2022/01/14 09:29:42;;;;;;;58.40;19.90;;;1.20;99.90;;;;;;5114255;28;20453;-83
2022/01/14 09:32:09;;;;;;;57.03;20.57;;;1.30;99.90;;;;;;5095707;28;20035;-82
2022/01/14 09:34:36;;;;;;;57.20;19.60;;;1.20;99.90;;;;;;5096061;28;20123;-82
2022/01/14 09:37:02;;;;;;;60.57;20.20;;;1.30;99.90;;;;;;5096182;28;20121;-83
2022/01/14 09:39:31;;;;;;;56.20;20.63;;;1.20;99.90;;;;;;5095800;28;20295;-83
2022/01/14 09:41:56;;;;;;;57.63;20.57;;;1.30;99.90;;;;;;5114243;28;20020;-83
2022/01/14 09:44:22;;;;;;;63.07;22.23;;;1.30;99.90;;;;;;5095537;28;20483;-83
2022/01/14 09:46:49;;;;;;;57.63;20.80;;;1.30;99.90;;;;;;5096486;28;20031;-83
2022/01/14 09:49:15;;;;;;;52.27;20.57;;;1.30;99.90;;;;;;5113704;28;20030;-83
2022/01/14 09:51:41;;;;;;;57.90;20.57;;;1.40;99.90;;;;;;5095595;28;20028;-83
2022/01/14 09:54:10;;;;;;;53.53;20.00;;;1.40;99.90;;;;;;5095528;28;20035;-83
2022/01/14 10:10:25;;;;;;;68.40;21.27;;;1.50;99.90;;;;;;5309424;22;20291;-84
2022/01/14 10:12:51;;;;;;;54.53;19.90;;;1.50;99.90;;;;;;4998431;28;20086;-82
2022/01/14 10:15:16;;;;;;;52.70;20.03;;;1.50;99.90;;;;;;4999815;28;20065;-82
2022/01/14 10:17:44;;;;;;;56.97;21.10;;;1.60;99.90;;;;;;4999283;28;20116;-81
2022/01/14 10:20:12;;;;;;;59.00;21.20;;;1.80;99.90;;;;;;4999156;28;20026;-82
2022/01/14 10:22:43;;;;;;;53.43;20.33;;;1.80;99.90;;;;;;5016106;28;20034;-83
2022/01/14 10:25:15;;;;;;;62.47;22.30;;;1.80;99.90;;;;;;5016766;28;20360;-83
2022/01/14 10:27:42;;;;;;;53.58;20.80;;;1.90;99.90;;;;;;4998639;28;20029;-83
2022/01/14 10:30:24;;;;;;;52.90;20.10;;;1.90;99.90;;;;;;5016423;28;20030;-83
2022/01/14 10:32:59;;;;;;;;;;;1.90;99.90;;;;;;4999262;28;20033;-82
2022/01/14 10:35:31;;;;;;;48.53;16.87;;;1.90;99.90;;;;;;4998482;28;19944;-85
2022/01/14 10:38:03;;;;;;;53.10;20.63;;;1.90;99.90;;;;;;4999321;28;20467;-82
2022/01/14 10:40:30;;;;;;;;;;;1.80;99.90;;;;;;5016194;28;20029;-82
2022/01/14 10:43:02;;;;;;;50.47;18.73;;;1.80;99.90;;;;;;5015072;28;19947;-82
2022/01/14 10:45:29;;;;;;;52.80;19.37;;;1.80;99.90;;;;;;4998345;28;20084;-82
2022/01/14 10:48:07;;;;;;;51.50;20.17;;;1.80;99.90;;;;;;5015077;28;20034;-82
2022/01/14 10:50:52;;;;;;;51.67;20.27;;;1.80;99.90;;;;;;4998429;28;20076;-82
2022/01/14 10:53:41;;;;;;;52.03;20.60;;;1.90;99.90;;;;;;5016068;28;20152;-81
2022/01/14 10:56:12;;;;;;;54.07;20.53;;;1.80;99.90;;;;;;4998611;28;20055;-82
2022/01/14 10:58:43;;;;;;;52.00;20.67;;;2.00;99.90;;;;;;4998308;28;20021;-82
2022/01/14 11:01:13;;;;;;;51.23;20.77;;;2.10;99.90;;;;;;5016164;28;20275;-82
2022/01/14 11:03:45;;;;;;;57.57;21.47;;;2.10;99.90;;;;;;4998391;28;20022;-82
2022/01/14 11:06:22;;;;;;;52.05;19.98;;;2.00;99.90;;;;;;5015735;28;20069;-83
2022/01/14 11:08:55;;;;;;;55.40;21.90;;;2.10;99.90;;;;;;4997144;28;20026;-82
2022/01/14 11:11:21;;;;;;;51.57;19.80;;;2.20;99.90;;;;;;5014670;28;20049;-82
2022/01/14 11:13:46;;;;;;;48.23;20.30;;;2.20;99.90;;;;;;4998171;28;20037;-82
2022/01/14 11:16:13;;;;;;;51.90;20.33;;;2.20;99.90;;;;;;4998236;28;20040;-82
2022/01/14 11:18:39;;;;;;;55.57;21.13;;;2.20;99.90;;;;;;5014385;28;20032;-82
2022/01/14 11:23:49;;;;;;;52.13;21.37;;;2.20;99.90;;;;;;5015208;28;20037;-83
2022/01/14 11:26:19;;;;;;;48.80;19.80;;;2.20;99.90;;;;;;4998397;28;20038;-82
2022/01/14 11:28:46;;;;;;;45.17;18.70;;;2.20;99.90;;;;;;4997959;28;20034;-82
2022/01/14 11:31:36;;;;;;;46.33;20.20;;;2.20;99.90;;;;;;4998329;28;20026;-82
2022/01/14 11:34:05;;;;;;;45.20;18.37;;;2.30;99.90;;;;;;4998386;28;20030;-81
2022/01/14 11:36:50;;;;;;;52.17;20.07;;;2.30;99.90;;;;;;5014936;28;20029;-83
2022/01/14 11:39:20;;;;;;;50.80;18.63;;;2.30;99.90;;;;;;5014410;28;20026;-81
2022/01/14 11:41:53;;;;;;;49.57;19.50;;;2.30;99.90;;;;;;4997325;28;20029;-82
2022/01/14 11:44:44;;;;;;;46.90;18.63;;;2.30;99.90;;;;;;5014052;28;20037;-82
2022/01/14 11:47:22;;;;;;;48.57;19.27;;;2.20;99.90;;;;;;4997652;28;20030;-82
2022/01/14 11:49:47;;;;;;;49.33;19.67;;;2.30;99.90;;;;;;4997072;28;20030;-82
2022/01/14 11:52:13;;;;;;;46.00;19.90;;;2.30;99.90;;;;;;5014259;28;20128;-81
2022/01/14 11:54:42;;;;;;;46.73;19.23;;;2.40;99.90;;;;;;5013444;28;20426;-81
2022/01/14 11:57:09;;;;;;;50.03;18.87;;;2.50;99.90;;;;;;4997446;28;20037;-82
2022/01/14 11:59:34;;;;;;;53.50;21.00;;;2.50;99.90;;;;;;5014543;28;20034;-83
2022/01/14 12:02:00;;;;;;;47.57;19.23;;;2.60;99.90;;;;;;4997524;28;20478;-82
2022/01/14 12:05:04;;;;;;;45.97;19.03;;;2.80;99.90;;;;;;4997359;28;20483;-82
2022/01/14 12:07:31;;;;;;;55.37;21.40;;;2.80;99.90;;;;;;4997139;28;20018;-85
2022/01/14 12:10:03;;;;;;;52.00;21.57;;;2.90;99.90;;;;;;4997359;28;20123;-83
2022/01/14 12:12:30;;;;;;;47.33;19.70;;;3.00;99.90;;;;;;5014878;28;20060;-82
2022/01/14 12:15:00;;;;;;;47.20;19.40;;;2.90;99.90;;;;;;5013795;28;20030;-82
2022/01/14 12:17:36;;;;;;;47.27;19.20;;;2.70;99.90;;;;;;4997018;28;20360;-83
2022/01/14 12:20:17;;;;;;;49.17;19.73;;;2.60;99.90;;;;;;5013455;28;20057;-83
2022/01/14 12:23:09;;;;;;;52.53;19.40;;;2.60;99.90;;;;;;4996375;28;20084;-83
2022/01/14 12:25:45;;;;;;;42.40;17.17;;;2.70;99.90;;;;;;4996500;28;20048;-83
2022/01/14 12:28:29;;;;;;;48.20;18.70;;;2.90;99.90;;;;;;5013503;28;20037;-82
2022/01/14 12:31:01;;;;;;;46.30;17.87;;;2.90;99.90;;;;;;5013046;28;20077;-82
2022/01/14 12:33:50;;;;;;;42.42;17.23;;;3.10;99.90;;;;;;4996771;28;20029;-82
2022/01/14 12:36:19;;;;;;;48.23;18.83;;;3.40;99.90;;;;;;4997135;28;20033;-81
2022/01/14 12:38:46;;;;;;;50.13;18.57;;;3.50;99.90;;;;;;4996584;28;20036;-83
2022/01/14 12:41:20;;;;;;;48.17;19.73;;;3.60;99.90;;;;;;5014211;28;20065;-84
2022/01/14 12:43:57;;;;;;;51.07;19.23;;;3.80;99.90;;;;;;4996430;28;20026;-84
2022/01/14 12:46:52;;;;;;;44.00;19.37;;;3.90;99.90;;;;;;5013249;28;20072;-84
2022/01/14 12:49:24;;;;;;;45.37;18.57;;;4.20;99.90;;;;;;5013617;28;20025;-85
2022/01/14 12:51:59;;;;;;;42.35;17.80;;;4.20;99.90;;;;;;5013036;28;20029;-84
2022/01/14 12:54:32;;;;;;;44.87;18.07;;;4.20;99.90;;;;;;5014282;28;20026;-84
2022/01/14 12:56:58;;;;;;;45.13;18.43;;;4.20;99.90;;;;;;5014233;28;20030;-84
2022/01/14 12:59:25;;;;;;;45.80;19.73;;;4.30;99.90;;;;;;5014375;28;20078;-84
2022/01/14 13:01:53;;;;;;;47.73;18.87;;;4.30;99.90;;;;;;5012334;28;20108;-84
2022/01/14 13:04:22;;;;;;;45.57;19.07;;;4.40;99.90;;;;;;4996271;28;20064;-84
2022/01/14 13:06:53;;;;;;;42.37;18.30;;;4.40;99.90;;;;;;4996026;28;20037;-84
2022/01/14 13:09:22;;;;;;;44.40;18.20;;;4.50;99.90;;;;;;4996626;28;20425;-84
2022/01/14 13:11:57;;;;;;;41.47;17.27;;;4.50;99.90;;;;;;4995936;28;20107;-83
2022/01/14 13:14:41;;;;;;;41.53;18.33;;;4.70;99.90;;;;;;4996825;28;20053;-84
2022/01/14 13:17:13;;;;;;;40.97;16.63;;;4.60;99.90;;;;;;5012485;28;20042;-84
2022/01/14 13:19:40;;;;;;;43.23;18.53;;;4.60;99.90;;;;;;4996347;28;20026;-85